createdAt,value
2017-10-12T00:00:13.518Z,9.30
2017-10-12T00:02:40.560Z,9.30
2017-10-12T00:05:06.868Z,9.30
2017-10-12T00:07:33.154Z,9.30
2017-10-12T00:09:59.479Z,9.30
2017-10-12T00:12:25.805Z,9.30
2017-10-12T00:14:52.100Z,9.30
2017-10-12T00:17:18.347Z,9.30
2017-10-12T00:19:45.394Z,9.20
2017-10-12T00:22:11.719Z,9.20
2017-10-12T00:24:38.838Z,9.20
2017-10-12T00:27:05.143Z,9.30
2017-10-12T00:29:31.482Z,9.30
2017-10-12T00:31:57.788Z,9.30
2017-10-12T00:34:24.123Z,9.20
2017-10-12T00:36:50.422Z,9.20
2017-10-12T00:39:16.771Z,9.20
2017-10-12T00:41:43.067Z,9.20
2017-10-12T00:44:10.128Z,9.20
2017-10-12T00:46:36.458Z,9.20
2017-10-12T00:49:02.759Z,9.20
2017-10-12T00:51:29.791Z,9.20
2017-10-12T00:53:56.055Z,9.20
2017-10-12T00:56:22.326Z,9.20
2017-10-12T00:58:48.718Z,9.20
2017-10-12T01:01:15.011Z,9.10
2017-10-12T01:03:42.109Z,9.10
2017-10-12T01:06:08.432Z,9.10
2017-10-12T01:08:34.717Z,9.10
2017-10-12T01:11:01.820Z,9.00
2017-10-12T01:13:28.143Z,9.00
2017-10-12T01:15:54.459Z,9.00
2017-10-12T01:18:20.754Z,8.90
2017-10-12T01:20:47.868Z,8.90
2017-10-12T01:23:15.241Z,8.90
2017-10-12T01:25:41.883Z,8.90
2017-10-12T01:28:08.955Z,8.90
2017-10-12T01:30:35.247Z,8.90
2017-10-12T01:33:01.580Z,9.00
2017-10-12T01:35:28.680Z,9.00
2017-10-12T01:37:54.972Z,9.00
2017-10-12T01:40:22.102Z,8.90
2017-10-12T01:42:48.463Z,8.90
2017-10-12T01:45:14.768Z,8.90
2017-10-12T01:47:41.101Z,8.80
2017-10-12T01:50:08.210Z,8.80
2017-10-12T01:52:34.517Z,8.80
2017-10-12T01:55:00.864Z,8.80
2017-10-12T01:57:27.147Z,8.80
2017-10-12T01:59:53.469Z,8.80
2017-10-12T02:02:19.786Z,8.80
2017-10-12T02:04:46.889Z,8.70
2017-10-12T02:07:13.147Z,8.70
2017-10-12T02:09:39.499Z,8.70
2017-10-12T02:12:06.513Z,8.60
2017-10-12T02:14:32.829Z,8.60
2017-10-12T02:16:59.125Z,8.60
2017-10-12T02:19:25.417Z,8.60
2017-10-12T02:21:51.715Z,8.60
2017-10-12T02:24:18.054Z,8.60
2017-10-12T02:26:44.377Z,8.60
2017-10-12T02:29:10.675Z,8.50
2017-10-12T02:31:37.002Z,8.50
2017-10-12T02:34:03.339Z,8.50
2017-10-12T02:36:29.653Z,8.50
2017-10-12T02:38:56.044Z,8.50
2017-10-12T02:41:22.313Z,8.50
2017-10-12T02:43:48.932Z,8.50
2017-10-12T02:46:15.273Z,8.50
2017-10-12T02:48:41.620Z,8.50
2017-10-12T02:51:08.706Z,8.40
2017-10-12T02:53:34.989Z,8.40
2017-10-12T02:56:01.336Z,8.40
2017-10-12T02:58:27.610Z,8.40
2017-10-12T03:00:54.956Z,8.40
2017-10-12T03:03:21.275Z,8.40
2017-10-12T03:05:47.567Z,8.40
2017-10-12T03:08:13.894Z,8.40
2017-10-12T03:10:40.164Z,8.50
2017-10-12T03:13:06.480Z,8.50
2017-10-12T03:15:32.792Z,8.50
2017-10-12T03:17:59.107Z,8.50
2017-10-12T03:20:25.420Z,8.50
2017-10-12T03:22:51.821Z,8.50
2017-10-12T03:25:18.881Z,8.60
2017-10-12T03:27:45.183Z,8.60
2017-10-12T03:30:12.416Z,9.30
2017-10-12T03:32:40.404Z,9.50
2017-10-12T03:35:07.463Z,9.70
2017-10-12T03:37:34.520Z,9.80
2017-10-12T03:40:00.875Z,9.80
2017-10-12T03:42:27.195Z,10.00
2017-10-12T03:44:53.510Z,10.00
2017-10-12T03:47:19.862Z,10.10
2017-10-12T03:49:46.180Z,10.20
2017-10-12T03:52:12.505Z,10.20
2017-10-12T03:54:38.836Z,10.20
2017-10-12T03:57:05.134Z,10.20
2017-10-12T03:59:32.154Z,10.30
2017-10-12T04:01:58.450Z,10.30
2017-10-12T04:04:24.766Z,10.20
2017-10-12T04:06:51.371Z,10.10
2017-10-12T04:09:18.418Z,10.10
2017-10-12T04:11:45.407Z,10.20
2017-10-12T04:14:11.720Z,10.20
2017-10-12T04:16:38.063Z,10.20
2017-10-12T04:19:04.398Z,10.20
2017-10-12T04:21:30.704Z,10.20
2017-10-12T04:23:57.069Z,10.10
2017-10-12T04:26:23.403Z,10.20
2017-10-12T04:28:49.731Z,10.10
2017-10-12T04:31:16.049Z,10.20
2017-10-12T04:33:42.321Z,10.20
2017-10-12T04:36:08.660Z,10.20
2017-10-12T04:38:34.995Z,10.20
2017-10-12T04:41:01.390Z,10.20
2017-10-12T04:43:27.701Z,10.20
2017-10-12T04:45:54.399Z,10.20
2017-10-12T04:48:20.717Z,10.20
2017-10-12T04:50:47.004Z,10.20
2017-10-12T04:53:13.370Z,10.20
2017-10-12T04:55:39.711Z,10.10
2017-10-12T04:58:06.008Z,10.00
2017-10-12T05:00:33.079Z,10.00
2017-10-12T05:02:59.461Z,10.00
2017-10-12T05:05:25.751Z,10.10
2017-10-12T05:07:52.069Z,10.10
2017-10-12T05:10:18.362Z,10.10
2017-10-12T05:12:45.752Z,10.20
2017-10-12T05:15:12.055Z,10.20
2017-10-12T05:17:39.114Z,10.20
2017-10-12T05:20:05.482Z,10.20
2017-10-12T05:22:31.764Z,10.20
2017-10-12T05:24:58.087Z,10.20
2017-10-12T05:27:25.144Z,10.70
2017-10-12T05:29:51.450Z,10.70
2017-10-12T05:32:18.515Z,11.10
2017-10-12T05:34:45.516Z,11.10
2017-10-12T05:37:11.799Z,11.10
2017-10-12T05:39:38.123Z,11.20
2017-10-12T05:42:04.437Z,11.30
2017-10-12T05:44:31.465Z,11.80
2017-10-12T05:46:57.777Z,11.70
2017-10-12T05:49:31.080Z,11.90
2017-10-12T05:51:57.479Z,12.10
2017-10-12T05:54:23.847Z,12.20
2017-10-12T05:56:50.143Z,12.30
2017-10-12T05:59:16.529Z,12.10
2017-10-12T06:01:43.588Z,11.80
2017-10-12T06:04:09.891Z,11.80
2017-10-12T06:06:36.196Z,11.70
2017-10-12T06:09:02.571Z,11.60
2017-10-12T06:11:28.893Z,11.50
2017-10-12T06:13:55.173Z,11.40
2017-10-12T06:16:21.496Z,11.30
2017-10-12T06:18:47.800Z,11.20
2017-10-12T06:21:14.129Z,11.10
2017-10-12T06:23:40.439Z,10.90
2017-10-12T06:26:06.741Z,10.70
2017-10-12T06:28:33.832Z,10.30
2017-10-12T06:31:00.147Z,10.30
2017-10-12T06:33:26.385Z,10.20
2017-10-12T06:35:52.699Z,10.10
2017-10-12T06:38:19.146Z,10.00
2017-10-12T06:40:45.500Z,9.90
2017-10-12T06:43:12.195Z,9.90
2017-10-12T06:45:40.133Z,9.90
2017-10-12T06:48:07.210Z,9.80
2017-10-12T06:50:33.622Z,9.70
2017-10-12T06:53:00.672Z,9.80
2017-10-12T06:55:27.034Z,9.70
2017-10-12T06:57:53.354Z,9.80
2017-10-12T07:00:19.676Z,9.90
2017-10-12T07:02:46.063Z,9.90
2017-10-12T07:05:12.732Z,10.00
2017-10-12T07:07:39.009Z,10.10
2017-10-12T07:10:05.343Z,10.20
2017-10-12T07:12:31.661Z,10.30
2017-10-12T07:14:58.040Z,10.50
2017-10-12T07:17:25.084Z,10.70
2017-10-12T07:19:51.385Z,10.70
2017-10-12T07:22:17.984Z,10.70
2017-10-12T07:24:44.356Z,10.80
2017-10-12T07:27:10.646Z,10.80
2017-10-12T07:29:36.984Z,10.90
2017-10-12T07:32:03.286Z,10.90
2017-10-12T07:34:29.586Z,11.00
2017-10-12T07:36:56.630Z,11.20
2017-10-12T07:39:23.712Z,11.30
2017-10-12T07:41:49.993Z,11.20
2017-10-12T07:44:16.290Z,11.40
2017-10-12T07:46:42.647Z,11.40
2017-10-12T07:49:09.011Z,11.50
2017-10-12T07:51:35.601Z,11.60
2017-10-12T07:54:01.872Z,11.70
2017-10-12T07:56:28.183Z,11.80
2017-10-12T07:58:55.249Z,12.00
2017-10-12T08:01:21.569Z,11.90
2017-10-12T08:03:47.932Z,12.10
2017-10-12T08:06:14.234Z,12.30
2017-10-12T08:08:40.903Z,12.50
2017-10-12T08:11:07.178Z,12.70
2017-10-12T08:13:33.482Z,12.90
2017-10-12T08:15:59.840Z,13.20
2017-10-12T08:18:26.864Z,13.80
2017-10-12T08:20:53.949Z,13.90
2017-10-12T08:23:20.265Z,13.90
2017-10-12T08:25:47.321Z,14.30
2017-10-12T08:28:13.650Z,14.30
2017-10-12T08:30:40.280Z,14.60
2017-10-12T08:33:06.586Z,14.70
2017-10-12T08:35:32.871Z,14.90
2017-10-12T08:37:59.214Z,15.10
2017-10-12T08:40:25.568Z,15.30
2017-10-12T08:42:51.873Z,15.40
2017-10-12T08:45:18.158Z,15.50
2017-10-12T08:47:44.438Z,15.70
2017-10-12T08:50:10.778Z,15.90
2017-10-12T08:52:37.121Z,16.10
2017-10-12T08:55:03.390Z,16.30
2017-10-12T08:57:29.676Z,16.50
2017-10-12T08:59:55.917Z,16.60
2017-10-12T09:02:22.956Z,17.00
2017-10-12T09:04:50.046Z,17.20
2017-10-12T09:07:16.328Z,17.10
2017-10-12T09:09:43.369Z,17.20
2017-10-12T09:12:10.384Z,17.10
2017-10-12T09:14:36.668Z,17.10
2017-10-12T09:17:02.978Z,17.00
2017-10-12T09:19:29.255Z,16.80
2017-10-12T09:21:55.543Z,16.70
2017-10-12T09:24:21.806Z,16.70
2017-10-12T09:26:48.151Z,16.80
2017-10-12T09:29:14.481Z,16.90
2017-10-12T09:31:40.823Z,17.00
2017-10-12T09:34:07.941Z,17.40
2017-10-12T09:36:34.663Z,17.40
2017-10-12T09:39:01.078Z,17.50
2017-10-12T09:41:28.189Z,17.60
2017-10-12T09:43:54.602Z,17.60
2017-10-12T09:46:20.919Z,17.80
2017-10-12T09:48:47.258Z,17.90
2017-10-12T09:51:13.634Z,18.10
2017-10-12T09:53:40.716Z,18.50
2017-10-12T09:56:07.040Z,18.40
2017-10-12T09:58:33.424Z,18.50
2017-10-12T10:00:59.758Z,18.60
2017-10-12T10:03:26.891Z,18.80
2017-10-12T10:05:53.290Z,18.80
2017-10-12T10:08:19.618Z,19.00
2017-10-12T10:10:45.921Z,19.10
2017-10-12T10:13:12.276Z,19.30
2017-10-12T10:15:38.587Z,19.50
2017-10-12T10:18:04.893Z,19.60
2017-10-12T10:20:32.991Z,20.00
2017-10-12T10:23:00.115Z,20.10
2017-10-12T10:25:26.426Z,20.10
2017-10-12T10:27:53.734Z,19.80
2017-10-12T10:30:20.053Z,19.80
2017-10-12T10:32:47.108Z,19.50
2017-10-12T10:35:13.434Z,19.50
2017-10-12T10:37:40.083Z,19.40
2017-10-12T10:40:06.377Z,19.40
2017-10-12T10:42:32.655Z,19.40
2017-10-12T10:44:58.977Z,19.40
2017-10-12T10:47:25.351Z,19.30
2017-10-12T10:49:51.742Z,19.20
2017-10-12T10:52:18.148Z,19.20
2017-10-12T10:54:44.397Z,19.40
2017-10-12T10:57:11.451Z,19.90
2017-10-12T10:59:37.719Z,19.90
2017-10-12T11:02:04.048Z,19.80
2017-10-12T11:04:30.323Z,19.70
2017-10-12T11:06:56.664Z,19.60
2017-10-12T11:09:22.946Z,19.50
2017-10-12T11:11:49.605Z,19.40
2017-10-12T11:14:15.914Z,19.20
2017-10-12T11:16:42.185Z,19.10
2017-10-12T11:19:09.240Z,18.90
2017-10-12T11:21:36.267Z,18.80
2017-10-12T11:24:02.607Z,18.80
2017-10-12T11:26:29.672Z,18.90
2017-10-12T11:28:56.729Z,19.00
2017-10-12T11:31:23.016Z,18.90
2017-10-12T11:33:49.342Z,19.00
2017-10-12T11:36:15.616Z,19.00
2017-10-12T11:38:41.968Z,18.90
2017-10-12T11:41:08.277Z,19.00
2017-10-12T11:43:34.601Z,19.00
2017-10-12T11:46:00.910Z,19.00
2017-10-12T11:48:27.951Z,19.00
2017-10-12T11:50:55.062Z,19.10
2017-10-12T11:53:21.371Z,19.00
2017-10-12T11:55:47.647Z,19.10
2017-10-12T11:58:13.937Z,19.20
2017-10-12T12:00:40.244Z,19.10
2017-10-12T12:03:06.598Z,19.00
2017-10-12T12:05:32.897Z,18.80
2017-10-12T12:07:59.281Z,18.60
2017-10-12T12:10:25.595Z,18.50
2017-10-12T12:12:52.173Z,18.30
2017-10-12T12:15:19.279Z,18.20
2017-10-12T12:17:45.564Z,18.10
2017-10-12T12:20:11.863Z,18.20
2017-10-12T12:22:38.882Z,18.20
2017-10-12T12:25:06.078Z,18.30
2017-10-12T12:27:32.403Z,18.30
2017-10-12T12:29:58.745Z,18.40
2017-10-12T12:32:25.060Z,18.50
2017-10-12T12:34:51.380Z,18.50
2017-10-12T12:37:18.421Z,18.50
2017-10-12T12:39:45.549Z,18.50
2017-10-12T12:42:11.874Z,18.40
2017-10-12T12:44:38.234Z,18.30
2017-10-12T12:47:04.650Z,18.10
2017-10-12T12:49:31.738Z,18.00
2017-10-12T12:51:58.074Z,17.90
2017-10-12T12:54:24.356Z,17.90
2017-10-12T12:56:51.434Z,17.80
2017-10-12T12:59:17.742Z,17.80
2017-10-12T13:01:44.062Z,17.80
2017-10-12T13:04:11.147Z,17.90
2017-10-12T13:06:37.453Z,17.90
2017-10-12T13:09:03.843Z,17.90
2017-10-12T13:11:30.141Z,18.00
2017-10-12T13:13:56.538Z,18.00
2017-10-12T13:16:22.853Z,18.10
2017-10-12T13:18:49.988Z,18.30
2017-10-12T13:21:16.374Z,18.30
2017-10-12T13:23:42.801Z,18.30
2017-10-12T13:26:09.199Z,18.30
2017-10-12T13:28:36.287Z,18.10
2017-10-12T13:31:02.646Z,18.00
2017-10-12T13:33:28.969Z,18.10
2017-10-12T13:35:55.313Z,18.20
2017-10-12T13:38:21.761Z,18.30
2017-10-12T13:40:48.792Z,18.30
2017-10-12T13:43:15.072Z,18.30
2017-10-12T13:45:41.483Z,18.40
2017-10-12T13:48:07.858Z,18.30
2017-10-12T13:50:34.262Z,18.30
2017-10-12T13:53:00.771Z,18.20
2017-10-12T13:55:27.308Z,18.10
2017-10-12T13:57:53.922Z,18.00
2017-10-12T14:00:21.320Z,17.90
2017-10-12T14:02:47.885Z,17.90
2017-10-12T14:05:14.289Z,17.80
2017-10-12T14:07:40.593Z,17.80
2017-10-12T14:10:06.982Z,17.70
2017-10-12T14:12:34.089Z,17.60
2017-10-12T14:15:00.440Z,17.60
2017-10-12T14:17:26.807Z,17.50
2017-10-12T14:19:53.899Z,17.40
2017-10-12T14:22:20.200Z,17.40
2017-10-12T14:24:46.523Z,17.40
2017-10-12T14:27:13.594Z,17.30
2017-10-12T14:29:39.908Z,17.30
2017-10-12T14:32:06.206Z,17.20
2017-10-12T14:34:33.262Z,17.20
2017-10-12T14:37:00.377Z,17.10
2017-10-12T14:39:26.806Z,17.10
2017-10-12T14:41:53.923Z,17.00
2017-10-12T14:44:20.285Z,17.00
2017-10-12T14:46:46.789Z,17.00
2017-10-12T14:49:13.102Z,16.90
2017-10-12T14:51:39.401Z,16.90
2017-10-12T14:54:06.499Z,16.80
2017-10-12T14:56:32.816Z,16.90
2017-10-12T14:58:59.147Z,16.90
2017-10-12T15:01:25.411Z,16.80
2017-10-12T15:03:51.752Z,16.80
2017-10-12T15:06:18.066Z,16.80
2017-10-12T15:08:44.368Z,16.80
2017-10-12T15:11:10.664Z,16.80
2017-10-12T15:13:37.737Z,16.80
2017-10-12T15:16:04.389Z,16.80
2017-10-12T15:18:30.663Z,16.70
2017-10-12T15:20:56.952Z,16.70
2017-10-12T15:23:23.326Z,16.70
2017-10-12T15:25:50.364Z,16.80
2017-10-12T15:28:17.489Z,16.80
2017-10-12T15:30:43.778Z,16.70
2017-10-12T15:33:10.118Z,16.80
2017-10-12T15:35:36.459Z,16.80
2017-10-12T15:38:03.046Z,16.80
2017-10-12T15:40:30.152Z,16.80
2017-10-12T15:42:56.458Z,16.80
2017-10-12T15:45:22.822Z,16.90
2017-10-12T15:47:49.147Z,16.90
2017-10-12T15:50:15.436Z,16.90
2017-10-12T15:52:41.758Z,16.90
2017-10-12T15:55:08.115Z,16.90
2017-10-12T15:57:34.437Z,16.80
2017-10-12T16:00:00.757Z,16.80
2017-10-12T16:02:27.019Z,16.70
2017-10-12T16:04:53.308Z,16.70
2017-10-12T16:07:19.638Z,16.60
2017-10-12T16:09:45.933Z,16.60
2017-10-12T16:12:12.216Z,16.50
2017-10-12T16:14:38.518Z,16.50
2017-10-12T16:17:04.819Z,16.40
2017-10-12T16:19:31.115Z,16.30
2017-10-12T16:21:57.471Z,16.30
2017-10-12T16:24:23.767Z,16.20
2017-10-12T16:26:50.073Z,16.10
2017-10-12T16:29:16.383Z,16.00
2017-10-12T16:31:42.638Z,15.90
2017-10-12T16:34:08.952Z,15.80
2017-10-12T16:36:35.226Z,15.70
2017-10-12T16:39:01.682Z,15.60
2017-10-12T16:41:28.738Z,15.30
2017-10-12T16:43:55.058Z,15.30
2017-10-12T16:46:21.385Z,15.30
2017-10-12T16:48:47.752Z,15.10
2017-10-12T16:51:14.094Z,15.10
2017-10-12T16:53:40.388Z,15.10
2017-10-12T16:56:06.754Z,15.20
2017-10-12T16:58:33.080Z,15.10
2017-10-12T17:00:59.534Z,15.00
2017-10-12T17:03:25.867Z,14.80
2017-10-12T17:05:53.225Z,14.50
2017-10-12T17:08:20.417Z,14.40
2017-10-12T17:10:46.842Z,14.30
2017-10-12T17:13:13.279Z,14.20
2017-10-12T17:15:39.745Z,14.10
2017-10-12T17:18:06.324Z,14.00
2017-10-12T17:20:32.706Z,13.90
2017-10-12T17:22:59.162Z,13.90
2017-10-12T17:25:25.685Z,13.80
2017-10-12T17:27:52.235Z,13.70
2017-10-12T17:30:18.878Z,13.60
2017-10-12T17:32:45.340Z,13.60
2017-10-12T17:35:11.936Z,13.50
2017-10-12T17:37:38.601Z,13.50
2017-10-12T17:40:05.353Z,13.40
2017-10-12T17:42:31.909Z,13.40
2017-10-12T17:44:59.303Z,13.20
2017-10-12T17:47:25.864Z,13.20
2017-10-12T17:49:52.863Z,13.20
2017-10-12T17:52:19.533Z,13.10
2017-10-12T17:54:46.173Z,13.10
2017-10-12T17:57:13.769Z,13.00
2017-10-12T17:59:41.159Z,13.00
2017-10-12T18:02:07.874Z,13.00
2017-10-12T18:04:49.481Z,13.00
2017-10-12T18:07:02.017Z,13.10
2017-10-12T18:09:28.548Z,13.10
2017-10-12T18:14:22.285Z,13.10
2017-10-12T18:16:49.602Z,13.20
2017-10-12T18:19:16.094Z,13.20
2017-10-12T18:21:42.539Z,13.30
2017-10-12T18:24:09.149Z,13.30
2017-10-12T18:26:35.832Z,13.40
2017-10-12T18:29:02.536Z,13.40
2017-10-12T18:31:29.130Z,13.40
2017-10-12T18:33:55.629Z,13.40
2017-10-12T18:36:22.146Z,13.40
2017-10-12T18:38:48.643Z,13.40
2017-10-12T18:41:15.137Z,13.40
2017-10-12T18:43:41.574Z,13.40
2017-10-12T18:46:08.078Z,13.40
2017-10-12T18:48:34.608Z,13.40
2017-10-12T18:51:01.112Z,13.40
2017-10-12T18:53:28.246Z,13.40
2017-10-12T18:55:54.726Z,13.30
2017-10-12T18:58:21.266Z,13.40
2017-10-12T19:00:47.992Z,13.40
2017-10-12T19:03:14.471Z,13.40
2017-10-12T19:05:40.897Z,13.40
2017-10-12T19:08:07.293Z,13.40
2017-10-12T19:10:33.717Z,13.40
2017-10-12T19:13:00.905Z,13.40
2017-10-12T19:15:27.377Z,13.40
2017-10-12T19:17:54.525Z,13.40
2017-10-12T19:20:21.695Z,13.40
2017-10-12T19:22:48.925Z,13.40
2017-10-12T19:25:16.531Z,13.40
2017-10-12T19:27:43.016Z,13.40
2017-10-12T19:30:09.525Z,13.40
2017-10-12T19:32:35.941Z,13.40
2017-10-12T19:35:02.556Z,13.40
2017-10-12T19:37:29.037Z,13.40
2017-10-12T19:39:55.607Z,13.40
2017-10-12T19:42:22.073Z,13.40
2017-10-12T19:44:48.612Z,13.40
2017-10-12T19:47:15.060Z,13.50
2017-10-12T19:49:41.788Z,13.50
2017-10-12T19:52:08.241Z,13.50
2017-10-12T19:54:34.666Z,13.50
2017-10-12T19:57:01.894Z,13.60
2017-10-12T19:59:28.292Z,13.50
2017-10-12T20:01:54.703Z,13.60
2017-10-12T20:04:21.886Z,13.60
2017-10-12T20:06:48.392Z,13.50
2017-10-12T20:09:15.596Z,13.50
2017-10-12T20:11:42.002Z,13.50
2017-10-12T20:16:34.862Z,13.50
2017-10-12T20:19:01.258Z,13.50
2017-10-12T20:21:28.355Z,13.50
2017-10-12T20:26:21.098Z,13.50
2017-10-12T20:28:47.480Z,13.50
2017-10-12T20:31:13.965Z,13.50
2017-10-12T20:33:40.394Z,13.40
2017-10-12T20:36:06.747Z,13.40
2017-10-12T20:38:33.141Z,13.40
2017-10-12T20:40:59.484Z,13.40
2017-10-12T20:43:25.922Z,13.40
2017-10-12T20:45:52.286Z,13.40
2017-10-12T20:48:18.604Z,13.30
2017-10-12T20:50:45.745Z,13.30
2017-10-12T20:53:12.162Z,13.30
2017-10-12T20:55:38.509Z,13.30
2017-10-12T20:58:04.862Z,13.30
2017-10-12T21:00:31.207Z,13.20
2017-10-12T21:02:57.592Z,13.30
2017-10-12T21:05:23.906Z,13.30
2017-10-12T21:07:50.232Z,13.30
2017-10-12T21:10:16.557Z,13.20
2017-10-12T21:12:42.832Z,13.30
2017-10-12T21:15:09.963Z,13.30
2017-10-12T21:17:36.247Z,13.30
2017-10-12T21:20:02.618Z,13.30
2017-10-12T21:22:28.906Z,13.40
2017-10-12T21:24:55.263Z,13.40
2017-10-12T21:27:21.575Z,13.40
2017-10-12T21:29:47.901Z,13.40
2017-10-12T21:32:14.224Z,13.40
2017-10-12T21:34:40.538Z,13.40
2017-10-12T21:37:06.866Z,13.50
2017-10-12T21:39:33.247Z,13.40
2017-10-12T21:41:59.579Z,13.50
2017-10-12T21:44:25.878Z,13.50
2017-10-12T21:46:52.207Z,13.40
2017-10-12T21:49:18.502Z,13.40
2017-10-12T21:51:45.605Z,13.40
2017-10-12T21:54:11.942Z,13.30
2017-10-12T21:56:38.230Z,13.30
2017-10-12T21:59:04.559Z,13.30
2017-10-12T22:01:30.827Z,13.30
2017-10-12T22:03:57.158Z,13.30
2017-10-12T22:06:23.487Z,13.30
2017-10-12T22:08:50.560Z,13.30
2017-10-12T22:11:16.884Z,13.30
2017-10-12T22:13:43.967Z,13.30
2017-10-12T22:16:10.259Z,13.30
2017-10-12T22:18:36.583Z,13.30
2017-10-12T22:21:03.652Z,13.30
2017-10-12T22:23:31.002Z,13.30
2017-10-12T22:25:58.074Z,13.30
2017-10-12T22:28:24.442Z,13.30
2017-10-12T22:30:50.813Z,13.30
2017-10-12T22:33:17.152Z,13.30
2017-10-12T22:35:43.438Z,13.30
2017-10-12T22:38:09.801Z,13.30
2017-10-12T22:40:36.210Z,13.20
2017-10-12T22:43:03.259Z,13.10
2017-10-12T22:45:30.334Z,13.10
2017-10-12T22:47:56.669Z,13.10
2017-10-12T22:50:22.958Z,13.00
2017-10-12T22:52:50.298Z,12.90
2017-10-12T22:55:16.605Z,12.90
2017-10-12T22:57:43.476Z,12.90
2017-10-12T23:00:10.150Z,12.90
2017-10-12T23:02:36.452Z,12.90
2017-10-12T23:05:03.482Z,12.90
2017-10-12T23:07:29.801Z,12.80
2017-10-12T23:09:56.131Z,12.90
2017-10-12T23:12:22.435Z,12.80
2017-10-12T23:14:49.000Z,12.80
2017-10-12T23:17:15.311Z,12.80
2017-10-12T23:19:41.613Z,12.80
2017-10-12T23:22:08.584Z,12.80
2017-10-12T23:24:34.849Z,12.80
2017-10-12T23:27:01.213Z,12.80
2017-10-12T23:29:27.523Z,12.80
2017-10-12T23:31:53.836Z,12.80
2017-10-12T23:34:20.196Z,12.70
2017-10-12T23:36:46.520Z,12.70
2017-10-12T23:39:12.890Z,12.70
2017-10-12T23:41:39.193Z,12.70
2017-10-12T23:44:05.508Z,12.70
2017-10-12T23:46:31.799Z,12.70
2017-10-12T23:48:58.136Z,12.70
2017-10-12T23:51:25.142Z,12.70
2017-10-12T23:53:51.429Z,12.60
2017-10-12T23:56:17.769Z,12.70
2017-10-12T23:58:44.043Z,12.60
